sensor_id;sensor_type;location;lat;lon;timestamp;temperature;humidity
7566;DHT22;3824;48.010;7.832;2022-11-14T00:01:06;4.80;99.90
7566;DHT22;3824;48.010;7.832;2022-11-14T00:03:34;4.80;99.90
7566;DHT22;3824;48.010;7.832;2022-11-14T00:06:04;6.70;99.90
7566;DHT22;3824;48.010;7.832;2022-11-14T00:08:31;4.80;99.90
7566;DHT22;3824;48.010;7.832;2022-11-14T00:10:58;4.90;99.90
7566;DHT22;3824;48.010;7.832;2022-11-14T00:13:25;4.80;99.90
7566;DHT22;3824;48.010;7.832;2022-11-14T00:15:52;4.80;99.90
7566;DHT22;3824;48.010;7.832;2022-11-14T00:18:19;4.90;99.90
7566;DHT22;3824;48.010;7.832;2022-11-14T00:20:46;4.90;99.90
7566;DHT22;3824;48.010;7.832;2022-11-14T00:23:15;7.90;99.90
7566;DHT22;3824;48.010;7.832;2022-11-14T00:25:42;4.90;99.90
7566;DHT22;3824;48.010;7.832;2022-11-14T00:28:09;4.90;99.90
7566;DHT22;3824;48.010;7.832;2022-11-14T00:30:36;6.80;99.90
7566;DHT22;3824;48.010;7.832;2022-11-14T00:33:03;5.00;99.90
7566;DHT22;3824;48.010;7.832;2022-11-14T00:35:30;5.50;99.90
7566;DHT22;3824;48.010;7.832;2022-11-14T00:37:57;5.90;99.90
7566;DHT22;3824;48.010;7.832;2022-11-14T00:40:25;5.00;99.90
7566;DHT22;3824;48.010;7.832;2022-11-14T00:42:52;6.80;99.90
7566;DHT22;3824;48.010;7.832;2022-11-14T00:45:19;4.90;99.90
7566;DHT22;3824;48.010;7.832;2022-11-14T00:47:45;4.80;99.90
7566;DHT22;3824;48.010;7.832;2022-11-14T00:50:12;5.00;99.90
7566;DHT22;3824;48.010;7.832;2022-11-14T00:52:39;4.80;99.90
7566;DHT22;3824;48.010;7.832;2022-11-14T00:55:07;6.60;99.90
7566;DHT22;3824;48.010;7.832;2022-11-14T00:57:35;4.80;99.90
7566;DHT22;3824;48.010;7.832;2022-11-14T01:00:03;4.80;99.90
7566;DHT22;3824;48.010;7.832;2022-11-14T01:02:30;4.80;99.90
7566;DHT22;3824;48.010;7.832;2022-11-14T01:04:57;4.90;99.90
7566;DHT22;3824;48.010;7.832;2022-11-14T01:07:24;6.90;99.90
7566;DHT22;3824;48.010;7.832;2022-11-14T01:09:51;5.50;99.90
7566;DHT22;3824;48.010;7.832;2022-11-14T01:12:18;6.60;99.90
7566;DHT22;3824;48.010;7.832;2022-11-14T01:14:47;5.20;99.90
7566;DHT22;3824;48.010;7.832;2022-11-14T01:17:13;4.70;99.90
7566;DHT22;3824;48.010;7.832;2022-11-14T01:19:40;4.70;99.90
7566;DHT22;3824;48.010;7.832;2022-11-14T01:22:07;5.60;99.90
7566;DHT22;3824;48.010;7.832;2022-11-14T01:24:34;4.60;99.90
7566;DHT22;3824;48.010;7.832;2022-11-14T01:27:01;4.70;99.90
7566;DHT22;3824;48.010;7.832;2022-11-14T01:29:28;5.40;99.90
7566;DHT22;3824;48.010;7.832;2022-11-14T01:31:56;5.50;99.90
7566;DHT22;3824;48.010;7.832;2022-11-14T01:34:24;4.50;99.90
7566;DHT22;3824;48.010;7.832;2022-11-14T01:36:51;4.50;99.90
7566;DHT22;3824;48.010;7.832;2022-11-14T01:39:18;7.00;99.90
7566;DHT22;3824;48.010;7.832;2022-11-14T01:41:45;5.70;99.90
7566;DHT22;3824;48.010;7.832;2022-11-14T01:44:13;6.40;99.90
7566;DHT22;3824;48.010;7.832;2022-11-14T01:46:42;5.50;99.90
7566;DHT22;3824;48.010;7.832;2022-11-14T01:49:16;4.40;99.90
7566;DHT22;3824;48.010;7.832;2022-11-14T01:51:47;4.40;99.90
7566;DHT22;3824;48.010;7.832;2022-11-14T01:54:18;7.10;99.90
7566;DHT22;3824;48.010;7.832;2022-11-14T01:56:50;4.40;99.90
7566;DHT22;3824;48.010;7.832;2022-11-14T01:59:21;4.40;99.90
7566;DHT22;3824;48.010;7.832;2022-11-14T02:01:50;4.40;99.90
7566;DHT22;3824;48.010;7.832;2022-11-14T02:04:21;4.30;99.90
7566;DHT22;3824;48.010;7.832;2022-11-14T02:06:49;4.30;99.90
7566;DHT22;3824;48.010;7.832;2022-11-14T02:09:17;7.70;99.90
7566;DHT22;3824;48.010;7.832;2022-11-14T02:11:44;6.00;99.90
7566;DHT22;3824;48.010;7.832;2022-11-14T02:14:12;5.10;99.90
7566;DHT22;3824;48.010;7.832;2022-11-14T02:16:40;6.70;99.90
7566;DHT22;3824;48.010;7.832;2022-11-14T02:19:07;5.40;99.90
7566;DHT22;3824;48.010;7.832;2022-11-14T02:21:36;4.20;99.90
7566;DHT22;3824;48.010;7.832;2022-11-14T02:24:06;4.80;99.90
7566;DHT22;3824;48.010;7.832;2022-11-14T02:26:34;4.20;99.90
7566;DHT22;3824;48.010;7.832;2022-11-14T02:29:00;5.00;99.90
7566;DHT22;3824;48.010;7.832;2022-11-14T02:31:27;4.20;99.90
7566;DHT22;3824;48.010;7.832;2022-11-14T02:33:54;4.10;99.90
7566;DHT22;3824;48.010;7.832;2022-11-14T02:36:21;5.60;99.90
7566;DHT22;3824;48.010;7.832;2022-11-14T02:38:49;4.10;99.90
7566;DHT22;3824;48.010;7.832;2022-11-14T02:41:16;4.00;99.90
7566;DHT22;3824;48.010;7.832;2022-11-14T02:43:43;4.10;99.90
7566;DHT22;3824;48.010;7.832;2022-11-14T02:46:10;6.80;99.90
7566;DHT22;3824;48.010;7.832;2022-11-14T02:48:37;6.30;99.90
7566;DHT22;3824;48.010;7.832;2022-11-14T02:51:03;4.00;99.90
7566;DHT22;3824;48.010;7.832;2022-11-14T02:53:30;3.90;99.90
7566;DHT22;3824;48.010;7.832;2022-11-14T02:55:58;3.90;99.90
7566;DHT22;3824;48.010;7.832;2022-11-14T02:58:25;6.70;99.90
7566;DHT22;3824;48.010;7.832;2022-11-14T03:00:52;3.80;99.90
7566;DHT22;3824;48.010;7.832;2022-11-14T03:03:19;5.50;99.90
7566;DHT22;3824;48.010;7.832;2022-11-14T03:05:46;6.70;99.90
7566;DHT22;3824;48.010;7.832;2022-11-14T03:08:12;4.30;99.90
7566;DHT22;3824;48.010;7.832;2022-11-14T03:10:39;5.10;99.90
7566;DHT22;3824;48.010;7.832;2022-11-14T03:13:07;5.60;99.90
7566;DHT22;3824;48.010;7.832;2022-11-14T03:15:35;3.70;99.90
7566;DHT22;3824;48.010;7.832;2022-11-14T03:18:02;3.70;99.90
7566;DHT22;3824;48.010;7.832;2022-11-14T03:20:29;6.60;99.90
7566;DHT22;3824;48.010;7.832;2022-11-14T03:22:56;3.70;99.90
7566;DHT22;3824;48.010;7.832;2022-11-14T03:25:23;7.00;99.90
7566;DHT22;3824;48.010;7.832;2022-11-14T03:27:50;6.10;99.90
7566;DHT22;3824;48.010;7.832;2022-11-14T03:30:18;5.00;99.90
7566;DHT22;3824;48.010;7.832;2022-11-14T03:32:45;3.60;99.90
7566;DHT22;3824;48.010;7.832;2022-11-14T03:35:12;6.90;99.90
7566;DHT22;3824;48.010;7.832;2022-11-14T03:37:39;4.60;99.90
7566;DHT22;3824;48.010;7.832;2022-11-14T03:40:07;3.80;99.90
7566;DHT22;3824;48.010;7.832;2022-11-14T03:42:34;3.50;99.90
7566;DHT22;3824;48.010;7.832;2022-11-14T03:45:02;6.40;99.90
7566;DHT22;3824;48.010;7.832;2022-11-14T03:47:30;3.40;99.90
7566;DHT22;3824;48.010;7.832;2022-11-14T03:49:57;3.40;99.90
7566;DHT22;3824;48.010;7.832;2022-11-14T03:52:23;4.20;99.90
7566;DHT22;3824;48.010;7.832;2022-11-14T03:54:51;3.40;99.90
7566;DHT22;3824;48.010;7.832;2022-11-14T03:57:18;7.10;99.90
7566;DHT22;3824;48.010;7.832;2022-11-14T03:59:44;3.50;99.90
7566;DHT22;3824;48.010;7.832;2022-11-14T04:02:11;4.90;99.90
7566;DHT22;3824;48.010;7.832;2022-11-14T04:04:39;3.70;99.90
7566;DHT22;3824;48.010;7.832;2022-11-14T04:07:06;5.40;99.90
7566;DHT22;3824;48.010;7.832;2022-11-14T04:09:33;3.60;99.90
7566;DHT22;3824;48.010;7.832;2022-11-14T04:12:00;4.90;99.90
7566;DHT22;3824;48.010;7.832;2022-11-14T04:14:27;5.30;99.90
7566;DHT22;3824;48.010;7.832;2022-11-14T04:16:53;6.80;99.90
7566;DHT22;3824;48.010;7.832;2022-11-14T04:19:20;3.70;99.90
7566;DHT22;3824;48.010;7.832;2022-11-14T04:21:48;3.80;99.90
7566;DHT22;3824;48.010;7.832;2022-11-14T04:24:15;3.80;99.90
7566;DHT22;3824;48.010;7.832;2022-11-14T04:26:42;3.80;99.90
7566;DHT22;3824;48.010;7.832;2022-11-14T04:29:09;6.30;99.90
7566;DHT22;3824;48.010;7.832;2022-11-14T04:31:35;6.30;99.90
7566;DHT22;3824;48.010;7.832;2022-11-14T04:34:02;3.90;99.90
7566;DHT22;3824;48.010;7.832;2022-11-14T04:36:29;4.40;99.90
7566;DHT22;3824;48.010;7.832;2022-11-14T04:38:57;5.10;99.90
7566;DHT22;3824;48.010;7.832;2022-11-14T04:41:24;4.00;99.90
7566;DHT22;3824;48.010;7.832;2022-11-14T04:43:51;5.10;99.90
7566;DHT22;3824;48.010;7.832;2022-11-14T04:46:17;6.30;99.90
7566;DHT22;3824;48.010;7.832;2022-11-14T04:48:44;4.10;99.90
7566;DHT22;3824;48.010;7.832;2022-11-14T04:51:11;5.30;99.90
7566;DHT22;3824;48.010;7.832;2022-11-14T04:53:38;3.90;99.90
7566;DHT22;3824;48.010;7.832;2022-11-14T04:56:07;7.60;99.90
7566;DHT22;3824;48.010;7.832;2022-11-14T04:58:33;3.90;99.90
7566;DHT22;3824;48.010;7.832;2022-11-14T05:01:06;3.90;99.90
7566;DHT22;3824;48.010;7.832;2022-11-14T05:03:33;3.90;99.90
7566;DHT22;3824;48.010;7.832;2022-11-14T05:06:00;5.30;99.90
7566;DHT22;3824;48.010;7.832;2022-11-14T05:08:27;3.80;99.90
7566;DHT22;3824;48.010;7.832;2022-11-14T05:10:53;5.90;99.90
7566;DHT22;3824;48.010;7.832;2022-11-14T05:13:22;3.80;99.90
7566;DHT22;3824;48.010;7.832;2022-11-14T05:15:48;3.80;99.90
7566;DHT22;3824;48.010;7.832;2022-11-14T05:18:15;4.90;99.90
7566;DHT22;3824;48.010;7.832;2022-11-14T05:20:42;3.80;99.90
7566;DHT22;3824;48.010;7.832;2022-11-14T05:23:17;4.20;99.90
7566;DHT22;3824;48.010;7.832;2022-11-14T05:25:44;3.90;99.90
7566;DHT22;3824;48.010;7.832;2022-11-14T05:28:11;4.20;99.90
7566;DHT22;3824;48.010;7.832;2022-11-14T05:30:39;6.70;99.90
7566;DHT22;3824;48.010;7.832;2022-11-14T05:33:06;4.00;99.90
7566;DHT22;3824;48.010;7.832;2022-11-14T05:35:33;4.00;99.90
7566;DHT22;3824;48.010;7.832;2022-11-14T05:38:00;5.90;99.90
7566;DHT22;3824;48.010;7.832;2022-11-14T05:40:27;4.00;99.90
7566;DHT22;3824;48.010;7.832;2022-11-14T05:42:54;4.00;99.90
7566;DHT22;3824;48.010;7.832;2022-11-14T05:45:21;4.20;99.90
7566;DHT22;3824;48.010;7.832;2022-11-14T05:47:50;4.10;99.90
7566;DHT22;3824;48.010;7.832;2022-11-14T05:50:18;4.30;99.90
7566;DHT22;3824;48.010;7.832;2022-11-14T05:52:45;4.10;99.90
7566;DHT22;3824;48.010;7.832;2022-11-14T05:55:11;6.20;99.90
7566;DHT22;3824;48.010;7.832;2022-11-14T05:57:38;4.20;99.90
7566;DHT22;3824;48.010;7.832;2022-11-14T06:00:06;4.10;99.90
7566;DHT22;3824;48.010;7.832;2022-11-14T06:02:33;4.20;99.90
7566;DHT22;3824;48.010;7.832;2022-11-14T06:05:02;4.20;99.90
7566;DHT22;3824;48.010;7.832;2022-11-14T06:07:29;4.20;99.90
7566;DHT22;3824;48.010;7.832;2022-11-14T06:09:56;4.80;99.90
7566;DHT22;3824;48.010;7.832;2022-11-14T06:12:22;6.70;99.90
7566;DHT22;3824;48.010;7.832;2022-11-14T06:14:49;6.40;99.90
7566;DHT22;3824;48.010;7.832;2022-11-14T06:17:16;4.20;99.90
7566;DHT22;3824;48.010;7.832;2022-11-14T06:19:43;4.20;99.90
7566;DHT22;3824;48.010;7.832;2022-11-14T06:22:11;4.60;99.90
7566;DHT22;3824;48.010;7.832;2022-11-14T06:24:38;4.20;99.90
7566;DHT22;3824;48.010;7.832;2022-11-14T06:27:04;4.20;99.90
7566;DHT22;3824;48.010;7.832;2022-11-14T06:29:31;4.30;99.90
7566;DHT22;3824;48.010;7.832;2022-11-14T06:31:58;6.40;99.90
7566;DHT22;3824;48.010;7.832;2022-11-14T06:34:25;4.40;99.90
7566;DHT22;3824;48.010;7.832;2022-11-14T06:36:52;4.40;99.90
7566;DHT22;3824;48.010;7.832;2022-11-14T06:39:20;5.40;99.90
7566;DHT22;3824;48.010;7.832;2022-11-14T06:41:46;4.90;99.90
7566;DHT22;3824;48.010;7.832;2022-11-14T06:44:13;4.40;99.90
7566;DHT22;3824;48.010;7.832;2022-11-14T06:46:40;4.40;99.90
7566;DHT22;3824;48.010;7.832;2022-11-14T06:49:07;4.40;99.90
7566;DHT22;3824;48.010;7.832;2022-11-14T06:51:34;4.50;99.90
7566;DHT22;3824;48.010;7.832;2022-11-14T06:54:00;4.50;99.90
7566;DHT22;3824;48.010;7.832;2022-11-14T06:56:29;7.70;99.90
7566;DHT22;3824;48.010;7.832;2022-11-14T06:58:55;8.20;99.90
7566;DHT22;3824;48.010;7.832;2022-11-14T07:01:23;4.70;99.90
7566;DHT22;3824;48.010;7.832;2022-11-14T07:03:51;5.80;99.90
7566;DHT22;3824;48.010;7.832;2022-11-14T07:06:20;4.60;99.90
7566;DHT22;3824;48.010;7.832;2022-11-14T07:08:47;4.70;99.90
7566;DHT22;3824;48.010;7.832;2022-11-14T07:11:16;7.30;99.90
7566;DHT22;3824;48.010;7.832;2022-11-14T07:13:49;4.70;99.90
7566;DHT22;3824;48.010;7.832;2022-11-14T07:16:17;4.70;99.90
7566;DHT22;3824;48.010;7.832;2022-11-14T07:18:44;6.30;99.90
7566;DHT22;3824;48.010;7.832;2022-11-14T07:21:11;8.60;99.90
7566;DHT22;3824;48.010;7.832;2022-11-14T07:23:39;6.20;99.90
7566;DHT22;3824;48.010;7.832;2022-11-14T07:26:08;5.00;99.90
7566;DHT22;3824;48.010;7.832;2022-11-14T07:28:36;5.30;99.90
7566;DHT22;3824;48.010;7.832;2022-11-14T07:31:06;5.10;99.90
7566;DHT22;3824;48.010;7.832;2022-11-14T07:33:33;5.90;99.90
7566;DHT22;3824;48.010;7.832;2022-11-14T07:36:00;5.20;99.90
7566;DHT22;3824;48.010;7.832;2022-11-14T07:38:28;5.20;99.90
7566;DHT22;3824;48.010;7.832;2022-11-14T07:40:56;8.70;99.90
7566;DHT22;3824;48.010;7.832;2022-11-14T07:43:24;5.30;99.90
7566;DHT22;3824;48.010;7.832;2022-11-14T07:45:51;7.80;99.90
7566;DHT22;3824;48.010;7.832;2022-11-14T07:48:19;5.50;99.90
7566;DHT22;3824;48.010;7.832;2022-11-14T07:50:47;5.60;99.90
7566;DHT22;3824;48.010;7.832;2022-11-14T07:53:14;6.90;99.90
7566;DHT22;3824;48.010;7.832;2022-11-14T07:55:42;5.70;99.90
7566;DHT22;3824;48.010;7.832;2022-11-14T07:58:09;5.80;99.90
7566;DHT22;3824;48.010;7.832;2022-11-14T08:00:36;6.90;99.90
7566;DHT22;3824;48.010;7.832;2022-11-14T08:03:05;5.90;99.90
7566;DHT22;3824;48.010;7.832;2022-11-14T08:05:33;6.00;99.90
7566;DHT22;3824;48.010;7.832;2022-11-14T08:08:00;6.80;99.90
7566;DHT22;3824;48.010;7.832;2022-11-14T08:10:27;6.00;99.90
7566;DHT22;3824;48.010;7.832;2022-11-14T08:12:57;6.10;99.90
7566;DHT22;3824;48.010;7.832;2022-11-14T08:15:25;6.60;99.90
7566;DHT22;3824;48.010;7.832;2022-11-14T08:17:52;6.20;99.90
7566;DHT22;3824;48.010;7.832;2022-11-14T08:20:19;6.20;99.90
7566;DHT22;3824;48.010;7.832;2022-11-14T08:22:47;6.20;99.90
7566;DHT22;3824;48.010;7.832;2022-11-14T08:25:14;6.30;99.90
7566;DHT22;3824;48.010;7.832;2022-11-14T08:27:40;6.30;99.90
7566;DHT22;3824;48.010;7.832;2022-11-14T08:30:08;6.40;99.90
7566;DHT22;3824;48.010;7.832;2022-11-14T08:32:35;6.50;99.90
7566;DHT22;3824;48.010;7.832;2022-11-14T08:35:03;6.50;99.90
7566;DHT22;3824;48.010;7.832;2022-11-14T08:37:30;6.60;99.90
7566;DHT22;3824;48.010;7.832;2022-11-14T08:39:58;6.70;99.90
7566;DHT22;3824;48.010;7.832;2022-11-14T08:42:25;6.70;99.90
7566;DHT22;3824;48.010;7.832;2022-11-14T08:44:51;6.80;99.90
7566;DHT22;3824;48.010;7.832;2022-11-14T08:47:18;6.80;99.90
7566;DHT22;3824;48.010;7.832;2022-11-14T08:49:45;6.80;99.90
7566;DHT22;3824;48.010;7.832;2022-11-14T08:52:12;6.90;99.90
7566;DHT22;3824;48.010;7.832;2022-11-14T08:54:39;6.90;99.90
7566;DHT22;3824;48.010;7.832;2022-11-14T08:57:07;6.90;99.90
7566;DHT22;3824;48.010;7.832;2022-11-14T08:59:34;7.00;99.90
7566;DHT22;3824;48.010;7.832;2022-11-14T09:02:01;7.00;99.90
7566;DHT22;3824;48.010;7.832;2022-11-14T09:04:27;7.10;99.90
7566;DHT22;3824;48.010;7.832;2022-11-14T09:06:54;7.10;99.90
7566;DHT22;3824;48.010;7.832;2022-11-14T09:09:23;7.20;99.90
7566;DHT22;3824;48.010;7.832;2022-11-14T09:11:50;7.20;99.90
7566;DHT22;3824;48.010;7.832;2022-11-14T09:14:18;7.30;99.90
7566;DHT22;3824;48.010;7.832;2022-11-14T09:16:47;7.60;99.90
7566;DHT22;3824;48.010;7.832;2022-11-14T09:19:14;7.30;99.90
7566;DHT22;3824;48.010;7.832;2022-11-14T09:21:41;7.30;99.90
7566;DHT22;3824;48.010;7.832;2022-11-14T09:24:08;7.40;99.90
7566;DHT22;3824;48.010;7.832;2022-11-14T09:26:35;7.40;99.90
7566;DHT22;3824;48.010;7.832;2022-11-14T09:29:02;7.30;99.90
7566;DHT22;3824;48.010;7.832;2022-11-14T09:31:32;7.40;99.90
7566;DHT22;3824;48.010;7.832;2022-11-14T09:33:59;7.40;99.90
7566;DHT22;3824;48.010;7.832;2022-11-14T09:36:25;7.40;99.90
7566;DHT22;3824;48.010;7.832;2022-11-14T09:38:52;7.50;99.90
7566;DHT22;3824;48.010;7.832;2022-11-14T09:41:23;7.40;99.90
7566;DHT22;3824;48.010;7.832;2022-11-14T09:44:14;7.50;99.90
7566;DHT22;3824;48.010;7.832;2022-11-14T09:46:46;7.40;99.90
7566;DHT22;3824;48.010;7.832;2022-11-14T09:49:23;7.50;99.90
7566;DHT22;3824;48.010;7.832;2022-11-14T09:51:55;7.50;99.90
7566;DHT22;3824;48.010;7.832;2022-11-14T09:54:25;7.50;99.90
7566;DHT22;3824;48.010;7.832;2022-11-14T09:56:53;7.50;99.90
7566;DHT22;3824;48.010;7.832;2022-11-14T09:59:20;7.50;99.90
7566;DHT22;3824;48.010;7.832;2022-11-14T10:01:56;7.80;99.90
7566;DHT22;3824;48.010;7.832;2022-11-14T10:04:32;7.60;99.90
7566;DHT22;3824;48.010;7.832;2022-11-14T10:07:09;7.70;99.90
7566;DHT22;3824;48.010;7.832;2022-11-14T10:09:50;7.70;99.90
7566;DHT22;3824;48.010;7.832;2022-11-14T10:12:24;7.70;99.90
7566;DHT22;3824;48.010;7.832;2022-11-14T10:15:00;8.10;99.90
7566;DHT22;3824;48.010;7.832;2022-11-14T10:17:44;7.80;99.90
7566;DHT22;3824;48.010;7.832;2022-11-14T10:20:19;8.00;99.90
7566;DHT22;3824;48.010;7.832;2022-11-14T10:23:00;7.90;99.90
7566;DHT22;3824;48.010;7.832;2022-11-14T10:25:40;8.10;99.90
7566;DHT22;3824;48.010;7.832;2022-11-14T10:28:24;8.00;99.90
7566;DHT22;3824;48.010;7.832;2022-11-14T10:30:59;8.00;99.90
7566;DHT22;3824;48.010;7.832;2022-11-14T10:33:38;8.10;99.90
7566;DHT22;3824;48.010;7.832;2022-11-14T10:36:16;8.20;99.90
7566;DHT22;3824;48.010;7.832;2022-11-14T10:38:51;8.30;99.90
7566;DHT22;3824;48.010;7.832;2022-11-14T10:41:21;8.40;99.90
7566;DHT22;3824;48.010;7.832;2022-11-14T10:43:51;8.50;99.90
7566;DHT22;3824;48.010;7.832;2022-11-14T10:46:20;8.50;99.90
7566;DHT22;3824;48.010;7.832;2022-11-14T10:48:50;8.70;99.90
7566;DHT22;3824;48.010;7.832;2022-11-14T10:51:20;8.60;99.90
7566;DHT22;3824;48.010;7.832;2022-11-14T10:53:54;8.70;99.90
7566;DHT22;3824;48.010;7.832;2022-11-14T10:56:21;8.80;99.90
7566;DHT22;3824;48.010;7.832;2022-11-14T10:58:48;8.90;99.90
7566;DHT22;3824;48.010;7.832;2022-11-14T11:01:35;9.00;99.90
7566;DHT22;3824;48.010;7.832;2022-11-14T11:04:23;9.00;99.90
7566;DHT22;3824;48.010;7.832;2022-11-14T11:06:52;9.10;99.90
7566;DHT22;3824;48.010;7.832;2022-11-14T11:09:22;9.20;99.90
7566;DHT22;3824;48.010;7.832;2022-11-14T11:12:08;9.30;99.90
7566;DHT22;3824;48.010;7.832;2022-11-14T11:14:39;9.30;99.90
7566;DHT22;3824;48.010;7.832;2022-11-14T11:17:17;9.40;99.90
7566;DHT22;3824;48.010;7.832;2022-11-14T11:19:47;9.40;99.90
7566;DHT22;3824;48.010;7.832;2022-11-14T11:22:26;9.50;99.90
7566;DHT22;3824;48.010;7.832;2022-11-14T11:24:53;9.60;99.90
7566;DHT22;3824;48.010;7.832;2022-11-14T11:27:22;9.60;99.90
7566;DHT22;3824;48.010;7.832;2022-11-14T11:30:17;9.60;99.90
7566;DHT22;3824;48.010;7.832;2022-11-14T11:32:44;9.70;99.90
7566;DHT22;3824;48.010;7.832;2022-11-14T11:35:14;9.80;99.90
7566;DHT22;3824;48.010;7.832;2022-11-14T11:37:43;9.90;99.90
7566;DHT22;3824;48.010;7.832;2022-11-14T11:40:16;10.00;99.90
7566;DHT22;3824;48.010;7.832;2022-11-14T11:42:47;10.10;99.90
7566;DHT22;3824;48.010;7.832;2022-11-14T11:45:17;10.20;99.90
7566;DHT22;3824;48.010;7.832;2022-11-14T11:47:49;10.30;99.90
7566;DHT22;3824;48.010;7.832;2022-11-14T11:50:19;10.30;99.90
7566;DHT22;3824;48.010;7.832;2022-11-14T11:52:50;10.40;99.90
7566;DHT22;3824;48.010;7.832;2022-11-14T11:55:23;10.50;99.90
7566;DHT22;3824;48.010;7.832;2022-11-14T11:57:56;10.50;99.90
7566;DHT22;3824;48.010;7.832;2022-11-14T12:00:26;10.50;99.90
7566;DHT22;3824;48.010;7.832;2022-11-14T12:02:53;10.50;99.90
7566;DHT22;3824;48.010;7.832;2022-11-14T12:05:25;10.50;99.90
7566;DHT22;3824;48.010;7.832;2022-11-14T12:07:59;10.50;99.90
7566;DHT22;3824;48.010;7.832;2022-11-14T12:10:32;10.50;99.90
7566;DHT22;3824;48.010;7.832;2022-11-14T12:16:18;10.50;99.90
7566;DHT22;3824;48.010;7.832;2022-11-14T12:19:14;10.60;99.90
7566;DHT22;3824;48.010;7.832;2022-11-14T12:22:26;10.60;99.90
7566;DHT22;3824;48.010;7.832;2022-11-14T12:25:22;10.60;99.90
7566;DHT22;3824;48.010;7.832;2022-11-14T12:28:17;10.70;99.90
7566;DHT22;3824;48.010;7.832;2022-11-14T12:30:48;10.70;99.90
7566;DHT22;3824;48.010;7.832;2022-11-14T12:33:20;10.70;99.90
7566;DHT22;3824;48.010;7.832;2022-11-14T12:35:50;10.70;99.90
7566;DHT22;3824;48.010;7.832;2022-11-14T12:38:19;10.80;99.90
7566;DHT22;3824;48.010;7.832;2022-11-14T12:40:51;10.70;99.90
7566;DHT22;3824;48.010;7.832;2022-11-14T12:43:29;10.70;99.90
7566;DHT22;3824;48.010;7.832;2022-11-14T12:45:58;10.70;99.90
7566;DHT22;3824;48.010;7.832;2022-11-14T12:48:31;10.70;99.90
7566;DHT22;3824;48.010;7.832;2022-11-14T12:50:59;10.80;99.90
7566;DHT22;3824;48.010;7.832;2022-11-14T12:53:41;10.80;99.90
7566;DHT22;3824;48.010;7.832;2022-11-14T12:59:27;10.80;99.90
7566;DHT22;3824;48.010;7.832;2022-11-14T13:05:04;10.90;99.90
7566;DHT22;3824;48.010;7.832;2022-11-14T13:07:44;10.90;99.90
7566;DHT22;3824;48.010;7.832;2022-11-14T13:10:22;10.90;99.90
7566;DHT22;3824;48.010;7.832;2022-11-14T13:12:57;11.00;99.90
7566;DHT22;3824;48.010;7.832;2022-11-14T13:15:50;11.00;99.90
7566;DHT22;3824;48.010;7.832;2022-11-14T13:18:35;11.00;99.90
7566;DHT22;3824;48.010;7.832;2022-11-14T13:21:32;11.00;99.90
7566;DHT22;3824;48.010;7.832;2022-11-14T13:24:13;11.10;99.90
7566;DHT22;3824;48.010;7.832;2022-11-14T13:26:50;11.10;99.90
7566;DHT22;3824;48.010;7.832;2022-11-14T13:35:48;11.20;99.90
7566;DHT22;3824;48.010;7.832;2022-11-14T13:39:03;11.20;99.90
7566;DHT22;3824;48.010;7.832;2022-11-14T13:51:02;11.50;99.90
7566;DHT22;3824;48.010;7.832;2022-11-14T13:53:30;11.50;99.90
7566;DHT22;3824;48.010;7.832;2022-11-14T13:56:10;11.50;99.90
7566;DHT22;3824;48.010;7.832;2022-11-14T13:58:52;11.50;99.90
7566;DHT22;3824;48.010;7.832;2022-11-14T14:01:36;11.60;99.90
7566;DHT22;3824;48.010;7.832;2022-11-14T14:04:19;11.60;99.90
7566;DHT22;3824;48.010;7.832;2022-11-14T14:06:56;11.70;99.90
7566;DHT22;3824;48.010;7.832;2022-11-14T14:09:33;11.70;99.90
7566;DHT22;3824;48.010;7.832;2022-11-14T14:12:18;11.90;99.90
7566;DHT22;3824;48.010;7.832;2022-11-14T14:15:00;11.80;99.90
7566;DHT22;3824;48.010;7.832;2022-11-14T14:17:34;11.90;99.90
7566;DHT22;3824;48.010;7.832;2022-11-14T14:20:17;12.00;99.90
7566;DHT22;3824;48.010;7.832;2022-11-14T14:22:57;12.10;99.90
7566;DHT22;3824;48.010;7.832;2022-11-14T14:25:32;12.10;99.90
7566;DHT22;3824;48.010;7.832;2022-11-14T14:28:09;12.10;99.90
7566;DHT22;3824;48.010;7.832;2022-11-14T14:30:38;12.10;99.90
7566;DHT22;3824;48.010;7.832;2022-11-14T14:33:11;12.10;99.90
7566;DHT22;3824;48.010;7.832;2022-11-14T14:35:39;12.20;99.90
7566;DHT22;3824;48.010;7.832;2022-11-14T14:38:22;12.10;99.90
7566;DHT22;3824;48.010;7.832;2022-11-14T14:40:52;12.20;99.90
7566;DHT22;3824;48.010;7.832;2022-11-14T14:43:24;12.30;99.90
7566;DHT22;3824;48.010;7.832;2022-11-14T14:45:53;12.30;99.90
7566;DHT22;3824;48.010;7.832;2022-11-14T14:48:23;12.30;99.90
7566;DHT22;3824;48.010;7.832;2022-11-14T14:50:51;12.50;99.90
7566;DHT22;3824;48.010;7.832;2022-11-14T14:53:20;12.40;99.90
7566;DHT22;3824;48.010;7.832;2022-11-14T14:55:52;12.40;99.90
7566;DHT22;3824;48.010;7.832;2022-11-14T14:58:26;12.40;99.90
7566;DHT22;3824;48.010;7.832;2022-11-14T15:00:57;12.40;99.90
7566;DHT22;3824;48.010;7.832;2022-11-14T15:03:28;12.30;99.90
7566;DHT22;3824;48.010;7.832;2022-11-14T15:05:58;12.20;99.90
7566;DHT22;3824;48.010;7.832;2022-11-14T15:08:26;12.20;99.90
7566;DHT22;3824;48.010;7.832;2022-11-14T15:10:57;12.40;99.90
7566;DHT22;3824;48.010;7.832;2022-11-14T15:13:25;12.00;99.90
7566;DHT22;3824;48.010;7.832;2022-11-14T15:15:53;12.00;99.90
7566;DHT22;3824;48.010;7.832;2022-11-14T15:18:24;11.90;99.90
7566;DHT22;3824;48.010;7.832;2022-11-14T15:21:09;11.90;99.90
7566;DHT22;3824;48.010;7.832;2022-11-14T15:23:37;11.90;99.90
7566;DHT22;3824;48.010;7.832;2022-11-14T15:26:11;11.90;99.90
7566;DHT22;3824;48.010;7.832;2022-11-14T15:28:38;11.90;99.90
7566;DHT22;3824;48.010;7.832;2022-11-14T15:31:11;11.90;99.90
7566;DHT22;3824;48.010;7.832;2022-11-14T15:33:42;11.90;99.90
7566;DHT22;3824;48.010;7.832;2022-11-14T15:36:10;11.90;99.90
7566;DHT22;3824;48.010;7.832;2022-11-14T15:38:38;12.00;99.90
7566;DHT22;3824;48.010;7.832;2022-11-14T15:41:18;12.00;99.90
7566;DHT22;3824;48.010;7.832;2022-11-14T15:43:47;12.00;99.90
7566;DHT22;3824;48.010;7.832;2022-11-14T15:49:23;12.00;99.90
7566;DHT22;3824;48.010;7.832;2022-11-14T15:51:53;12.10;99.90
7566;DHT22;3824;48.010;7.832;2022-11-14T15:54:23;12.10;99.90
7566;DHT22;3824;48.010;7.832;2022-11-14T15:56:51;12.10;99.90
7566;DHT22;3824;48.010;7.832;2022-11-14T15:59:18;12.20;99.90
7566;DHT22;3824;48.010;7.832;2022-11-14T16:01:46;12.20;99.90
7566;DHT22;3824;48.010;7.832;2022-11-14T16:04:16;12.20;99.90
7566;DHT22;3824;48.010;7.832;2022-11-14T16:06:45;12.20;99.90
7566;DHT22;3824;48.010;7.832;2022-11-14T16:09:17;12.20;99.90
7566;DHT22;3824;48.010;7.832;2022-11-14T16:11:44;12.20;99.90
7566;DHT22;3824;48.010;7.832;2022-11-14T16:14:11;12.20;99.90
7566;DHT22;3824;48.010;7.832;2022-11-14T16:16:38;12.20;99.90
7566;DHT22;3824;48.010;7.832;2022-11-14T16:19:06;12.20;99.90
7566;DHT22;3824;48.010;7.832;2022-11-14T16:21:33;12.20;99.90
7566;DHT22;3824;48.010;7.832;2022-11-14T16:24:01;12.40;99.90
7566;DHT22;3824;48.010;7.832;2022-11-14T16:26:28;12.20;99.90
7566;DHT22;3824;48.010;7.832;2022-11-14T16:28:56;12.20;99.90
7566;DHT22;3824;48.010;7.832;2022-11-14T16:31:23;12.20;99.90
7566;DHT22;3824;48.010;7.832;2022-11-14T16:33:50;12.20;99.90
7566;DHT22;3824;48.010;7.832;2022-11-14T16:36:20;12.30;99.90
7566;DHT22;3824;48.010;7.832;2022-11-14T16:38:48;12.20;99.90
7566;DHT22;3824;48.010;7.832;2022-11-14T16:41:17;12.20;99.90
7566;DHT22;3824;48.010;7.832;2022-11-14T16:43:45;12.20;99.90
7566;DHT22;3824;48.010;7.832;2022-11-14T16:46:12;12.30;99.90
7566;DHT22;3824;48.010;7.832;2022-11-14T16:48:38;12.20;99.90
7566;DHT22;3824;48.010;7.832;2022-11-14T16:51:05;12.20;99.90
7566;DHT22;3824;48.010;7.832;2022-11-14T16:53:32;12.20;99.90
7566;DHT22;3824;48.010;7.832;2022-11-14T16:56:00;12.30;99.90
7566;DHT22;3824;48.010;7.832;2022-11-14T16:58:28;12.30;99.90